sensor_id;sensor_type;location;lat;lon;timestamp;P1;durP1;ratioP1;P2;durP2;ratioP2
26484;SDS011;18083;50.560;7.262;2023-03-14T00:00:13;5.12;;;1.82;;
26484;SDS011;18083;50.560;7.262;2023-03-14T00:02:41;2.00;;;0.97;;
26484;SDS011;18083;50.560;7.262;2023-03-14T00:07:55;6.20;;;1.27;;
26484;SDS011;18083;50.560;7.262;2023-03-14T00:10:22;4.58;;;1.82;;
26484;SDS011;18083;50.560;7.262;2023-03-14T00:12:49;4.10;;;1.57;;
26484;SDS011;18083;50.560;7.262;2023-03-14T00:15:16;2.47;;;1.20;;
26484;SDS011;18083;50.560;7.262;2023-03-14T00:17:44;3.93;;;1.30;;
26484;SDS011;18083;50.560;7.262;2023-03-14T00:20:11;4.33;;;1.67;;
26484;SDS011;18083;50.560;7.262;2023-03-14T00:22:39;2.70;;;1.70;;
26484;SDS011;18083;50.560;7.262;2023-03-14T00:25:07;5.33;;;2.22;;
26484;SDS011;18083;50.560;7.262;2023-03-14T00:27:34;5.47;;;1.70;;
26484;SDS011;18083;50.560;7.262;2023-03-14T00:30:03;3.30;;;1.30;;
26484;SDS011;18083;50.560;7.262;2023-03-14T00:32:31;2.42;;;1.12;;
26484;SDS011;18083;50.560;7.262;2023-03-14T00:34:58;5.80;;;1.60;;
26484;SDS011;18083;50.560;7.262;2023-03-14T00:37:27;5.10;;;2.15;;
26484;SDS011;18083;50.560;7.262;2023-03-14T00:39:54;6.70;;;1.42;;
26484;SDS011;18083;50.560;7.262;2023-03-14T00:42:21;3.47;;;1.13;;
26484;SDS011;18083;50.560;7.262;2023-03-14T00:44:49;4.65;;;1.55;;
26484;SDS011;18083;50.560;7.262;2023-03-14T00:47:16;3.08;;;1.37;;
26484;SDS011;18083;50.560;7.262;2023-03-14T00:49:43;5.75;;;2.00;;
26484;SDS011;18083;50.560;7.262;2023-03-14T00:52:17;5.73;;;1.67;;
26484;SDS011;18083;50.560;7.262;2023-03-14T00:54:44;3.37;;;1.30;;
26484;SDS011;18083;50.560;7.262;2023-03-14T00:57:11;2.20;;;1.43;;
26484;SDS011;18083;50.560;7.262;2023-03-14T00:59:38;4.37;;;1.50;;
26484;SDS011;18083;50.560;7.262;2023-03-14T01:02:06;6.97;;;2.70;;
26484;SDS011;18083;50.560;7.262;2023-03-14T01:04:33;7.03;;;1.57;;
26484;SDS011;18083;50.560;7.262;2023-03-14T01:07:01;4.72;;;2.02;;
26484;SDS011;18083;50.560;7.262;2023-03-14T01:09:28;3.17;;;1.55;;
26484;SDS011;18083;50.560;7.262;2023-03-14T01:11:55;6.33;;;1.50;;
26484;SDS011;18083;50.560;7.262;2023-03-14T01:14:22;4.45;;;1.77;;
26484;SDS011;18083;50.560;7.262;2023-03-14T01:16:50;2.47;;;1.67;;
26484;SDS011;18083;50.560;7.262;2023-03-14T01:19:17;5.67;;;1.75;;
26484;SDS011;18083;50.560;7.262;2023-03-14T01:21:44;5.30;;;2.03;;
26484;SDS011;18083;50.560;7.262;2023-03-14T01:24:11;7.80;;;1.67;;
26484;SDS011;18083;50.560;7.262;2023-03-14T01:26:39;8.10;;;2.08;;
26484;SDS011;18083;50.560;7.262;2023-03-14T01:29:06;1.70;;;1.57;;
26484;SDS011;18083;50.560;7.262;2023-03-14T01:31:33;6.67;;;1.50;;
26484;SDS011;18083;50.560;7.262;2023-03-14T01:34:00;4.47;;;1.45;;
26484;SDS011;18083;50.560;7.262;2023-03-14T01:39:17;9.25;;;2.40;;
26484;SDS011;18083;50.560;7.262;2023-03-14T01:41:45;4.10;;;1.32;;
26484;SDS011;18083;50.560;7.262;2023-03-14T01:44:12;4.67;;;1.43;;
26484;SDS011;18083;50.560;7.262;2023-03-14T01:46:40;4.70;;;1.60;;
26484;SDS011;18083;50.560;7.262;2023-03-14T01:54:14;5.40;;;1.70;;
26484;SDS011;18083;50.560;7.262;2023-03-14T01:56:41;2.30;;;1.47;;
26484;SDS011;18083;50.560;7.262;2023-03-14T01:59:09;3.77;;;1.20;;
26484;SDS011;18083;50.560;7.262;2023-03-14T02:01:38;7.85;;;1.52;;
26484;SDS011;18083;50.560;7.262;2023-03-14T02:04:06;3.05;;;1.42;;
26484;SDS011;18083;50.560;7.262;2023-03-14T02:06:37;6.47;;;1.60;;
26484;SDS011;18083;50.560;7.262;2023-03-14T02:09:03;3.13;;;1.37;;
26484;SDS011;18083;50.560;7.262;2023-03-14T02:11:30;4.10;;;1.60;;
26484;SDS011;18083;50.560;7.262;2023-03-14T02:14:03;2.67;;;1.67;;
26484;SDS011;18083;50.560;7.262;2023-03-14T02:16:31;4.50;;;1.62;;
26484;SDS011;18083;50.560;7.262;2023-03-14T02:18:58;3.95;;;1.35;;
26484;SDS011;18083;50.560;7.262;2023-03-14T02:21:38;3.57;;;1.47;;
26484;SDS011;18083;50.560;7.262;2023-03-14T02:27:08;7.40;;;2.03;;
26484;SDS011;18083;50.560;7.262;2023-03-14T02:29:36;7.50;;;1.90;;
26484;SDS011;18083;50.560;7.262;2023-03-14T02:32:04;7.33;;;2.92;;
26484;SDS011;18083;50.560;7.262;2023-03-14T02:34:32;8.35;;;2.37;;
26484;SDS011;18083;50.560;7.262;2023-03-14T02:37:00;10.27;;;1.90;;
26484;SDS011;18083;50.560;7.262;2023-03-14T02:39:29;6.67;;;1.60;;
26484;SDS011;18083;50.560;7.262;2023-03-14T02:41:56;2.00;;;1.50;;
26484;SDS011;18083;50.560;7.262;2023-03-14T02:44:24;5.97;;;1.42;;
26484;SDS011;18083;50.560;7.262;2023-03-14T02:46:51;8.27;;;2.00;;
26484;SDS011;18083;50.560;7.262;2023-03-14T02:49:18;5.20;;;1.60;;
26484;SDS011;18083;50.560;7.262;2023-03-14T02:51:45;7.60;;;2.07;;
26484;SDS011;18083;50.560;7.262;2023-03-14T02:54:14;3.23;;;1.53;;
26484;SDS011;18083;50.560;7.262;2023-03-14T02:56:42;4.63;;;2.00;;
26484;SDS011;18083;50.560;7.262;2023-03-14T02:59:09;4.80;;;2.00;;
26484;SDS011;18083;50.560;7.262;2023-03-14T03:01:36;6.50;;;1.87;;
26484;SDS011;18083;50.560;7.262;2023-03-14T03:04:04;6.67;;;2.10;;
26484;SDS011;18083;50.560;7.262;2023-03-14T03:06:31;10.00;;;4.10;;
26484;SDS011;18083;50.560;7.262;2023-03-14T03:08:58;7.90;;;1.90;;
26484;SDS011;18083;50.560;7.262;2023-03-14T03:11:26;8.07;;;1.70;;
26484;SDS011;18083;50.560;7.262;2023-03-14T03:13:53;6.07;;;1.80;;
26484;SDS011;18083;50.560;7.262;2023-03-14T03:16:20;6.07;;;2.00;;
26484;SDS011;18083;50.560;7.262;2023-03-14T03:18:48;5.13;;;1.87;;
26484;SDS011;18083;50.560;7.262;2023-03-14T03:21:15;7.60;;;2.10;;
26484;SDS011;18083;50.560;7.262;2023-03-14T03:23:42;11.07;;;2.47;;
26484;SDS011;18083;50.560;7.262;2023-03-14T03:26:10;5.57;;;2.13;;
26484;SDS011;18083;50.560;7.262;2023-03-14T03:28:37;4.63;;;1.77;;
26484;SDS011;18083;50.560;7.262;2023-03-14T03:31:08;7.67;;;2.40;;
26484;SDS011;18083;50.560;7.262;2023-03-14T03:33:36;7.90;;;2.37;;
26484;SDS011;18083;50.560;7.262;2023-03-14T03:36:04;11.13;;;2.23;;
26484;SDS011;18083;50.560;7.262;2023-03-14T03:38:31;4.93;;;1.43;;
26484;SDS011;18083;50.560;7.262;2023-03-14T03:41:01;8.63;;;1.70;;
26484;SDS011;18083;50.560;7.262;2023-03-14T03:43:27;6.17;;;1.60;;
26484;SDS011;18083;50.560;7.262;2023-03-14T03:45:54;4.93;;;2.20;;
26484;SDS011;18083;50.560;7.262;2023-03-14T03:48:21;2.97;;;1.50;;
26484;SDS011;18083;50.560;7.262;2023-03-14T03:50:49;6.53;;;1.70;;
26484;SDS011;18083;50.560;7.262;2023-03-14T03:53:16;9.63;;;1.50;;
26484;SDS011;18083;50.560;7.262;2023-03-14T03:55:43;4.77;;;1.83;;
26484;SDS011;18083;50.560;7.262;2023-03-14T03:58:10;6.83;;;1.67;;
26484;SDS011;18083;50.560;7.262;2023-03-14T04:00:38;4.20;;;1.30;;
26484;SDS011;18083;50.560;7.262;2023-03-14T04:03:05;4.17;;;1.20;;
26484;SDS011;18083;50.560;7.262;2023-03-14T04:08:19;8.67;;;2.17;;
26484;SDS011;18083;50.560;7.262;2023-03-14T04:10:46;2.67;;;1.20;;
26484;SDS011;18083;50.560;7.262;2023-03-14T04:13:14;7.07;;;1.50;;
26484;SDS011;18083;50.560;7.262;2023-03-14T04:15:41;6.33;;;1.47;;
26484;SDS011;18083;50.560;7.262;2023-03-14T04:18:08;10.73;;;1.33;;
26484;SDS011;18083;50.560;7.262;2023-03-14T04:20:35;1.83;;;1.20;;
26484;SDS011;18083;50.560;7.262;2023-03-14T04:23:03;1.60;;;1.10;;
26484;SDS011;18083;50.560;7.262;2023-03-14T04:25:30;1.80;;;0.93;;
26484;SDS011;18083;50.560;7.262;2023-03-14T04:27:57;2.00;;;0.97;;
26484;SDS011;18083;50.560;7.262;2023-03-14T04:33:26;3.80;;;1.07;;
26484;SDS011;18083;50.560;7.262;2023-03-14T04:35:53;2.00;;;0.73;;
26484;SDS011;18083;50.560;7.262;2023-03-14T04:38:21;3.47;;;1.03;;
26484;SDS011;18083;50.560;7.262;2023-03-14T04:40:48;2.67;;;0.73;;
26484;SDS011;18083;50.560;7.262;2023-03-14T04:43:15;1.40;;;0.60;;
26484;SDS011;18083;50.560;7.262;2023-03-14T04:45:43;4.33;;;1.10;;
26484;SDS011;18083;50.560;7.262;2023-03-14T04:48:10;2.47;;;0.50;;
26484;SDS011;18083;50.560;7.262;2023-03-14T04:50:38;1.97;;;0.70;;
26484;SDS011;18083;50.560;7.262;2023-03-14T04:53:06;1.80;;;0.60;;
26484;SDS011;18083;50.560;7.262;2023-03-14T04:55:33;1.67;;;0.65;;
26484;SDS011;18083;50.560;7.262;2023-03-14T04:58:01;1.90;;;0.70;;
26484;SDS011;18083;50.560;7.262;2023-03-14T05:00:28;1.30;;;0.47;;
26484;SDS011;18083;50.560;7.262;2023-03-14T05:02:56;0.30;;;0.30;;
26484;SDS011;18083;50.560;7.262;2023-03-14T05:05:23;3.75;;;0.80;;
26484;SDS011;18083;50.560;7.262;2023-03-14T05:07:51;1.95;;;0.57;;
26484;SDS011;18083;50.560;7.262;2023-03-14T05:10:18;2.23;;;0.40;;
26484;SDS011;18083;50.560;7.262;2023-03-14T05:12:45;1.57;;;0.47;;
26484;SDS011;18083;50.560;7.262;2023-03-14T05:15:12;1.27;;;0.20;;
26484;SDS011;18083;50.560;7.262;2023-03-14T05:17:40;0.10;;;0.10;;
26484;SDS011;18083;50.560;7.262;2023-03-14T05:20:09;0.50;;;0.20;;
26484;SDS011;18083;50.560;7.262;2023-03-14T05:22:38;0.83;;;0.30;;
26484;SDS011;18083;50.560;7.262;2023-03-14T05:25:06;0.50;;;0.20;;
26484;SDS011;18083;50.560;7.262;2023-03-14T05:27:33;0.23;;;0.23;;
26484;SDS011;18083;50.560;7.262;2023-03-14T05:30:01;0.10;;;0.10;;
26484;SDS011;18083;50.560;7.262;2023-03-14T05:32:28;1.53;;;0.30;;
26484;SDS011;18083;50.560;7.262;2023-03-14T05:34:56;0.53;;;0.30;;
26484;SDS011;18083;50.560;7.262;2023-03-14T05:37:25;0.30;;;0.30;;
26484;SDS011;18083;50.560;7.262;2023-03-14T05:39:53;0.20;;;0.20;;
26484;SDS011;18083;50.560;7.262;2023-03-14T05:42:20;1.43;;;0.30;;
26484;SDS011;18083;50.560;7.262;2023-03-14T05:44:47;1.97;;;0.40;;
26484;SDS011;18083;50.560;7.262;2023-03-14T05:47:15;0.20;;;0.20;;
26484;SDS011;18083;50.560;7.262;2023-03-14T05:49:42;0.20;;;0.20;;
26484;SDS011;18083;50.560;7.262;2023-03-14T05:52:09;0.20;;;0.20;;
26484;SDS011;18083;50.560;7.262;2023-03-14T05:54:36;3.70;;;0.30;;
26484;SDS011;18083;50.560;7.262;2023-03-14T05:57:04;0.40;;;0.33;;
26484;SDS011;18083;50.560;7.262;2023-03-14T05:59:31;0.40;;;0.30;;
26484;SDS011;18083;50.560;7.262;2023-03-14T06:01:59;1.20;;;0.40;;
26484;SDS011;18083;50.560;7.262;2023-03-14T06:04:26;0.30;;;0.30;;
26484;SDS011;18083;50.560;7.262;2023-03-14T06:06:53;0.43;;;0.27;;
26484;SDS011;18083;50.560;7.262;2023-03-14T06:09:21;0.27;;;0.27;;
26484;SDS011;18083;50.560;7.262;2023-03-14T06:11:49;0.70;;;0.20;;
26484;SDS011;18083;50.560;7.262;2023-03-14T06:14:17;0.97;;;0.37;;
26484;SDS011;18083;50.560;7.262;2023-03-14T06:16:44;12.97;;;7.57;;
26484;SDS011;18083;50.560;7.262;2023-03-14T06:19:11;6.17;;;2.93;;
26484;SDS011;18083;50.560;7.262;2023-03-14T06:21:38;2.60;;;0.80;;
26484;SDS011;18083;50.560;7.262;2023-03-14T06:24:06;1.17;;;0.57;;
26484;SDS011;18083;50.560;7.262;2023-03-14T06:26:33;0.20;;;0.20;;
26484;SDS011;18083;50.560;7.262;2023-03-14T06:29:00;0.20;;;0.10;;
26484;SDS011;18083;50.560;7.262;2023-03-14T06:31:30;0.20;;;0.20;;
26484;SDS011;18083;50.560;7.262;2023-03-14T06:33:57;1.47;;;0.33;;
26484;SDS011;18083;50.560;7.262;2023-03-14T06:36:25;2.67;;;0.50;;
26484;SDS011;18083;50.560;7.262;2023-03-14T06:38:52;0.23;;;0.23;;
26484;SDS011;18083;50.560;7.262;2023-03-14T06:41:19;0.27;;;0.27;;
26484;SDS011;18083;50.560;7.262;2023-03-14T06:43:48;1.93;;;0.40;;
26484;SDS011;18083;50.560;7.262;2023-03-14T06:46:16;0.33;;;0.20;;
26484;SDS011;18083;50.560;7.262;2023-03-14T06:48:43;1.30;;;1.00;;
26484;SDS011;18083;50.560;7.262;2023-03-14T06:51:11;0.43;;;0.37;;
26484;SDS011;18083;50.560;7.262;2023-03-14T06:53:38;0.50;;;0.50;;
26484;SDS011;18083;50.560;7.262;2023-03-14T06:56:06;0.77;;;0.40;;
26484;SDS011;18083;50.560;7.262;2023-03-14T06:58:33;3.20;;;1.73;;
26484;SDS011;18083;50.560;7.262;2023-03-14T07:01:01;1.30;;;0.50;;
26484;SDS011;18083;50.560;7.262;2023-03-14T07:03:28;2.00;;;0.33;;
26484;SDS011;18083;50.560;7.262;2023-03-14T07:05:55;0.60;;;0.40;;
26484;SDS011;18083;50.560;7.262;2023-03-14T07:08:23;0.30;;;0.30;;
26484;SDS011;18083;50.560;7.262;2023-03-14T07:10:50;0.30;;;0.30;;
26484;SDS011;18083;50.560;7.262;2023-03-14T07:13:17;1.00;;;0.20;;
26484;SDS011;18083;50.560;7.262;2023-03-14T07:15:45;0.90;;;0.90;;
26484;SDS011;18083;50.560;7.262;2023-03-14T07:18:12;0.75;;;0.42;;
26484;SDS011;18083;50.560;7.262;2023-03-14T07:20:39;6.27;;;4.20;;
26484;SDS011;18083;50.560;7.262;2023-03-14T07:23:06;0.40;;;0.40;;
26484;SDS011;18083;50.560;7.262;2023-03-14T07:25:37;1.47;;;1.13;;
26484;SDS011;18083;50.560;7.262;2023-03-14T07:28:04;1.60;;;0.30;;
26484;SDS011;18083;50.560;7.262;2023-03-14T07:30:31;5.57;;;3.57;;
26484;SDS011;18083;50.560;7.262;2023-03-14T07:32:59;0.60;;;0.33;;
26484;SDS011;18083;50.560;7.262;2023-03-14T07:35:26;2.75;;;1.75;;
26484;SDS011;18083;50.560;7.262;2023-03-14T07:37:53;1.52;;;1.10;;
26484;SDS011;18083;50.560;7.262;2023-03-14T07:40:20;0.47;;;0.47;;
26484;SDS011;18083;50.560;7.262;2023-03-14T07:42:48;0.28;;;0.28;;
26484;SDS011;18083;50.560;7.262;2023-03-14T07:48:08;0.68;;;0.65;;
26484;SDS011;18083;50.560;7.262;2023-03-14T07:50:36;0.20;;;0.20;;
26484;SDS011;18083;50.560;7.262;2023-03-14T07:53:03;0.40;;;0.40;;
26484;SDS011;18083;50.560;7.262;2023-03-14T07:55:30;1.03;;;0.60;;
26484;SDS011;18083;50.560;7.262;2023-03-14T07:57:57;2.52;;;1.42;;
26484;SDS011;18083;50.560;7.262;2023-03-14T08:00:25;0.10;;;0.10;;
26484;SDS011;18083;50.560;7.262;2023-03-14T08:02:52;0.62;;;0.30;;
26484;SDS011;18083;50.560;7.262;2023-03-14T08:05:19;1.45;;;0.50;;
26484;SDS011;18083;50.560;7.262;2023-03-14T08:07:47;0.35;;;0.35;;
26484;SDS011;18083;50.560;7.262;2023-03-14T08:10:14;0.20;;;0.20;;
26484;SDS011;18083;50.560;7.262;2023-03-14T08:12:50;0.40;;;0.35;;
26484;SDS011;18083;50.560;7.262;2023-03-14T08:15:18;0.70;;;0.60;;
26484;SDS011;18083;50.560;7.262;2023-03-14T08:17:45;0.17;;;0.17;;
26484;SDS011;18083;50.560;7.262;2023-03-14T08:20:14;0.20;;;0.20;;
26484;SDS011;18083;50.560;7.262;2023-03-14T08:22:41;0.37;;;0.37;;
26484;SDS011;18083;50.560;7.262;2023-03-14T08:25:09;0.47;;;0.45;;
26484;SDS011;18083;50.560;7.262;2023-03-14T08:27:36;1.12;;;1.07;;
26484;SDS011;18083;50.560;7.262;2023-03-14T08:30:05;0.47;;;0.40;;
26484;SDS011;18083;50.560;7.262;2023-03-14T08:32:33;0.20;;;0.20;;
26484;SDS011;18083;50.560;7.262;2023-03-14T08:35:00;0.20;;;0.20;;
26484;SDS011;18083;50.560;7.262;2023-03-14T08:37:28;0.20;;;0.20;;
26484;SDS011;18083;50.560;7.262;2023-03-14T08:39:55;1.05;;;0.40;;
26484;SDS011;18083;50.560;7.262;2023-03-14T08:42:22;0.23;;;0.23;;
26484;SDS011;18083;50.560;7.262;2023-03-14T08:44:54;0.17;;;0.17;;
26484;SDS011;18083;50.560;7.262;2023-03-14T08:47:18;0.30;;;0.30;;
26484;SDS011;18083;50.560;7.262;2023-03-14T08:49:46;0.57;;;0.35;;
26484;SDS011;18083;50.560;7.262;2023-03-14T08:52:13;0.20;;;0.20;;
26484;SDS011;18083;50.560;7.262;2023-03-14T08:54:45;4.47;;;0.28;;
26484;SDS011;18083;50.560;7.262;2023-03-14T08:57:12;0.37;;;0.20;;
26484;SDS011;18083;50.560;7.262;2023-03-14T08:59:40;0.45;;;0.30;;
26484;SDS011;18083;50.560;7.262;2023-03-14T09:02:09;0.35;;;0.20;;
26484;SDS011;18083;50.560;7.262;2023-03-14T09:04:36;0.20;;;0.20;;
26484;SDS011;18083;50.560;7.262;2023-03-14T09:07:03;0.35;;;0.35;;
26484;SDS011;18083;50.560;7.262;2023-03-14T09:09:30;1.47;;;0.20;;
26484;SDS011;18083;50.560;7.262;2023-03-14T09:11:58;0.10;;;0.10;;
26484;SDS011;18083;50.560;7.262;2023-03-14T09:14:25;0.20;;;0.20;;
26484;SDS011;18083;50.560;7.262;2023-03-14T09:16:54;0.40;;;0.40;;
26484;SDS011;18083;50.560;7.262;2023-03-14T09:19:22;0.45;;;0.40;;
26484;SDS011;18083;50.560;7.262;2023-03-14T09:21:49;0.10;;;0.10;;
26484;SDS011;18083;50.560;7.262;2023-03-14T09:24:16;0.47;;;0.30;;
26484;SDS011;18083;50.560;7.262;2023-03-14T09:26:44;0.42;;;0.20;;
26484;SDS011;18083;50.560;7.262;2023-03-14T09:29:11;0.23;;;0.20;;
26484;SDS011;18083;50.560;7.262;2023-03-14T09:31:39;2.47;;;0.45;;
26484;SDS011;18083;50.560;7.262;2023-03-14T09:34:06;0.57;;;0.57;;
26484;SDS011;18083;50.560;7.262;2023-03-14T09:36:33;1.45;;;0.10;;
26484;SDS011;18083;50.560;7.262;2023-03-14T09:39:01;2.92;;;0.30;;
26484;SDS011;18083;50.560;7.262;2023-03-14T09:41:29;0.33;;;0.30;;
26484;SDS011;18083;50.560;7.262;2023-03-14T09:46:29;0.10;;;0.10;;
26484;SDS011;18083;50.560;7.262;2023-03-14T09:48:56;0.20;;;0.20;;
26484;SDS011;18083;50.560;7.262;2023-03-14T09:51:24;0.20;;;0.20;;
26484;SDS011;18083;50.560;7.262;2023-03-14T09:53:52;0.20;;;0.20;;
26484;SDS011;18083;50.560;7.262;2023-03-14T09:56:24;0.57;;;0.55;;
26484;SDS011;18083;50.560;7.262;2023-03-14T09:58:50;0.20;;;0.20;;
26484;SDS011;18083;50.560;7.262;2023-03-14T10:01:18;2.50;;;0.20;;
26484;SDS011;18083;50.560;7.262;2023-03-14T10:03:46;0.50;;;0.50;;
26484;SDS011;18083;50.560;7.262;2023-03-14T10:06:14;0.40;;;0.20;;
26484;SDS011;18083;50.560;7.262;2023-03-14T10:08:42;0.10;;;0.10;;
26484;SDS011;18083;50.560;7.262;2023-03-14T10:11:19;0.10;;;0.10;;
26484;SDS011;18083;50.560;7.262;2023-03-14T10:13:46;2.10;;;0.13;;
26484;SDS011;18083;50.560;7.262;2023-03-14T10:16:07;0.28;;;0.28;;
26484;SDS011;18083;50.560;7.262;2023-03-14T10:18:35;0.10;;;0.10;;
26484;SDS011;18083;50.560;7.262;2023-03-14T10:21:04;1.40;;;0.33;;
26484;SDS011;18083;50.560;7.262;2023-03-14T10:23:32;0.20;;;0.20;;
26484;SDS011;18083;50.560;7.262;2023-03-14T10:26:05;1.70;;;0.10;;
26484;SDS011;18083;50.560;7.262;2023-03-14T10:28:33;0.40;;;0.30;;
26484;SDS011;18083;50.560;7.262;2023-03-14T10:31:00;0.47;;;0.40;;
26484;SDS011;18083;50.560;7.262;2023-03-14T10:33:29;0.30;;;0.30;;
26484;SDS011;18083;50.560;7.262;2023-03-14T10:35:57;1.10;;;0.10;;
26484;SDS011;18083;50.560;7.262;2023-03-14T10:38:31;1.43;;;0.30;;
26484;SDS011;18083;50.560;7.262;2023-03-14T10:40:54;0.23;;;0.23;;
26484;SDS011;18083;50.560;7.262;2023-03-14T10:43:23;0.30;;;0.30;;
26484;SDS011;18083;50.560;7.262;2023-03-14T10:45:54;0.30;;;0.30;;
26484;SDS011;18083;50.560;7.262;2023-03-14T10:48:30;0.77;;;0.40;;
26484;SDS011;18083;50.560;7.262;2023-03-14T10:51:02;0.93;;;0.40;;
26484;SDS011;18083;50.560;7.262;2023-03-14T10:53:26;0.40;;;0.40;;
26484;SDS011;18083;50.560;7.262;2023-03-14T10:55:55;0.20;;;0.20;;
26484;SDS011;18083;50.560;7.262;2023-03-14T10:58:42;1.70;;;0.43;;
26484;SDS011;18083;50.560;7.262;2023-03-14T11:03:43;0.60;;;0.60;;
26484;SDS011;18083;50.560;7.262;2023-03-14T11:06:13;1.70;;;0.53;;
26484;SDS011;18083;50.560;7.262;2023-03-14T11:08:57;1.23;;;0.73;;
26484;SDS011;18083;50.560;7.262;2023-03-14T11:20:51;1.37;;;0.87;;
26484;SDS011;18083;50.560;7.262;2023-03-14T11:36:06;2.10;;;1.83;;
26484;SDS011;18083;50.560;7.262;2023-03-14T11:45:01;1.53;;;1.20;;
26484;SDS011;18083;50.560;7.262;2023-03-14T11:50:53;1.63;;;1.50;;
26484;SDS011;18083;50.560;7.262;2023-03-14T13:13:45;1.57;;;0.70;;
26484;SDS011;18083;50.560;7.262;2023-03-14T13:19:39;1.33;;;0.97;;
26484;SDS011;18083;50.560;7.262;2023-03-14T13:24:36;1.83;;;0.83;;
26484;SDS011;18083;50.560;7.262;2023-03-14T13:45:21;1.37;;;1.00;;
26484;SDS011;18083;50.560;7.262;2023-03-14T13:47:51;1.60;;;1.47;;
26484;SDS011;18083;50.560;7.262;2023-03-14T13:50:18;2.03;;;1.23;;
26484;SDS011;18083;50.560;7.262;2023-03-14T13:52:56;2.03;;;1.00;;
26484;SDS011;18083;50.560;7.262;2023-03-14T13:55:27;1.33;;;1.13;;
26484;SDS011;18083;50.560;7.262;2023-03-14T14:07:07;3.23;;;1.27;;
26484;SDS011;18083;50.560;7.262;2023-03-14T14:16:04;0.93;;;0.90;;
26484;SDS011;18083;50.560;7.262;2023-03-14T14:19:03;3.33;;;1.70;;
26484;SDS011;18083;50.560;7.262;2023-03-14T14:24:58;1.33;;;1.23;;
26484;SDS011;18083;50.560;7.262;2023-03-14T14:33:53;10.93;;;2.80;;
26484;SDS011;18083;50.560;7.262;2023-03-14T14:36:25;3.17;;;1.10;;
26484;SDS011;18083;50.560;7.262;2023-03-14T14:39:05;3.87;;;1.30;;
26484;SDS011;18083;50.560;7.262;2023-03-14T14:55:48;2.20;;;0.70;;
26484;SDS011;18083;50.560;7.262;2023-03-14T14:58:41;5.03;;;1.20;;
26484;SDS011;18083;50.560;7.262;2023-03-14T15:07:20;2.07;;;1.10;;
26484;SDS011;18083;50.560;7.262;2023-03-14T15:10:09;1.50;;;1.00;;
26484;SDS011;18083;50.560;7.262;2023-03-14T15:15:28;2.60;;;1.37;;
26484;SDS011;18083;50.560;7.262;2023-03-14T15:17:55;3.97;;;1.10;;
26484;SDS011;18083;50.560;7.262;2023-03-14T15:20:23;6.00;;;2.50;;
26484;SDS011;18083;50.560;7.262;2023-03-14T15:22:51;3.07;;;1.43;;
26484;SDS011;18083;50.560;7.262;2023-03-14T15:25:18;3.80;;;1.13;;
26484;SDS011;18083;50.560;7.262;2023-03-14T15:27:45;3.67;;;3.00;;
26484;SDS011;18083;50.560;7.262;2023-03-14T15:30:13;5.77;;;1.73;;
26484;SDS011;18083;50.560;7.262;2023-03-14T15:32:41;3.97;;;2.00;;
26484;SDS011;18083;50.560;7.262;2023-03-14T15:35:08;6.07;;;1.80;;
26484;SDS011;18083;50.560;7.262;2023-03-14T15:37:36;3.90;;;2.07;;
26484;SDS011;18083;50.560;7.262;2023-03-14T15:40:03;7.60;;;3.03;;
26484;SDS011;18083;50.560;7.262;2023-03-14T15:42:32;5.77;;;3.07;;
26484;SDS011;18083;50.560;7.262;2023-03-14T15:45:00;9.97;;;3.10;;
26484;SDS011;18083;50.560;7.262;2023-03-14T15:47:27;7.53;;;2.30;;
26484;SDS011;18083;50.560;7.262;2023-03-14T15:49:54;5.30;;;3.23;;
26484;SDS011;18083;50.560;7.262;2023-03-14T15:52:21;7.27;;;1.90;;
26484;SDS011;18083;50.560;7.262;2023-03-14T15:54:49;7.43;;;3.27;;
26484;SDS011;18083;50.560;7.262;2023-03-14T15:57:16;8.70;;;2.33;;
26484;SDS011;18083;50.560;7.262;2023-03-14T15:59:43;9.27;;;2.50;;
26484;SDS011;18083;50.560;7.262;2023-03-14T16:02:10;10.00;;;2.70;;
26484;SDS011;18083;50.560;7.262;2023-03-14T16:04:38;11.87;;;2.47;;
26484;SDS011;18083;50.560;7.262;2023-03-14T16:07:05;4.07;;;1.93;;
26484;SDS011;18083;50.560;7.262;2023-03-14T16:09:32;6.77;;;1.97;;
26484;SDS011;18083;50.560;7.262;2023-03-14T16:12:00;3.67;;;2.00;;
26484;SDS011;18083;50.560;7.262;2023-03-14T16:14:27;10.27;;;3.23;;
26484;SDS011;18083;50.560;7.262;2023-03-14T16:16:54;3.33;;;2.70;;
26484;SDS011;18083;50.560;7.262;2023-03-14T16:19:24;1.00;;;0.90;;
26484;SDS011;18083;50.560;7.262;2023-03-14T16:21:52;4.33;;;2.47;;
26484;SDS011;18083;50.560;7.262;2023-03-14T16:24:19;5.13;;;3.73;;
26484;SDS011;18083;50.560;7.262;2023-03-14T16:26:47;1.73;;;1.60;;
26484;SDS011;18083;50.560;7.262;2023-03-14T16:29:14;1.67;;;1.57;;
26484;SDS011;18083;50.560;7.262;2023-03-14T16:31:42;5.83;;;2.23;;
26484;SDS011;18083;50.560;7.262;2023-03-14T16:34:10;3.20;;;2.53;;
26484;SDS011;18083;50.560;7.262;2023-03-14T16:36:37;3.33;;;1.97;;
26484;SDS011;18083;50.560;7.262;2023-03-14T16:39:05;3.67;;;1.87;;
26484;SDS011;18083;50.560;7.262;2023-03-14T16:41:32;1.80;;;0.93;;
26484;SDS011;18083;50.560;7.262;2023-03-14T16:44:00;3.53;;;1.50;;
26484;SDS011;18083;50.560;7.262;2023-03-14T16:46:28;0.87;;;0.77;;
26484;SDS011;18083;50.560;7.262;2023-03-14T16:48:56;2.80;;;1.73;;
26484;SDS011;18083;50.560;7.262;2023-03-14T16:51:25;2.00;;;1.40;;
26484;SDS011;18083;50.560;7.262;2023-03-14T16:53:52;3.90;;;1.87;;
26484;SDS011;18083;50.560;7.262;2023-03-14T16:56:20;6.23;;;2.00;;
26484;SDS011;18083;50.560;7.262;2023-03-14T16:58:48;3.93;;;1.13;;
26484;SDS011;18083;50.560;7.262;2023-03-14T17:01:16;4.97;;;1.90;;
26484;SDS011;18083;50.560;7.262;2023-03-14T17:03:47;2.87;;;2.27;;
26484;SDS011;18083;50.560;7.262;2023-03-14T17:06:16;4.37;;;2.63;;
26484;SDS011;18083;50.560;7.262;2023-03-14T17:08:43;4.30;;;2.77;;
26484;SDS011;18083;50.560;7.262;2023-03-14T17:11:11;2.67;;;2.47;;
26484;SDS011;18083;50.560;7.262;2023-03-14T17:13:38;4.27;;;2.37;;
26484;SDS011;18083;50.560;7.262;2023-03-14T17:16:06;4.27;;;1.73;;
26484;SDS011;18083;50.560;7.262;2023-03-14T17:18:34;3.43;;;1.10;;
26484;SDS011;18083;50.560;7.262;2023-03-14T17:21:02;4.30;;;1.67;;
26484;SDS011;18083;50.560;7.262;2023-03-14T17:23:50;4.17;;;1.60;;
26484;SDS011;18083;50.560;7.262;2023-03-14T17:26:17;3.17;;;2.30;;
26484;SDS011;18083;50.560;7.262;2023-03-14T17:28:45;3.50;;;2.00;;
26484;SDS011;18083;50.560;7.262;2023-03-14T17:31:14;4.07;;;2.30;;
26484;SDS011;18083;50.560;7.262;2023-03-14T17:33:41;7.90;;;2.47;;
26484;SDS011;18083;50.560;7.262;2023-03-14T17:36:09;3.73;;;2.80;;
26484;SDS011;18083;50.560;7.262;2023-03-14T17:38:38;6.10;;;2.30;;
26484;SDS011;18083;50.560;7.262;2023-03-14T17:41:09;3.90;;;1.83;;
26484;SDS011;18083;50.560;7.262;2023-03-14T17:43:37;4.20;;;2.03;;
26484;SDS011;18083;50.560;7.262;2023-03-14T17:46:05;5.00;;;4.10;;
26484;SDS011;18083;50.560;7.262;2023-03-14T17:48:39;4.97;;;2.97;;
26484;SDS011;18083;50.560;7.262;2023-03-14T17:51:08;6.77;;;3.27;;
26484;SDS011;18083;50.560;7.262;2023-03-14T17:53:35;8.67;;;5.27;;
26484;SDS011;18083;50.560;7.262;2023-03-14T17:56:03;3.87;;;2.17;;
26484;SDS011;18083;50.560;7.262;2023-03-14T17:58:30;5.40;;;2.20;;
26484;SDS011;18083;50.560;7.262;2023-03-14T18:01:09;10.87;;;3.40;;
26484;SDS011;18083;50.560;7.262;2023-03-14T18:03:36;8.97;;;3.50;;
26484;SDS011;18083;50.560;7.262;2023-03-14T18:08:52;7.90;;;3.80;;
26484;SDS011;18083;50.560;7.262;2023-03-14T18:11:20;11.47;;;2.50;;
26484;SDS011;18083;50.560;7.262;2023-03-14T18:13:48;13.87;;;4.80;;
26484;SDS011;18083;50.560;7.262;2023-03-14T18:16:15;7.40;;;3.30;;
26484;SDS011;18083;50.560;7.262;2023-03-14T18:18:43;8.17;;;2.83;;
26484;SDS011;18083;50.560;7.262;2023-03-14T18:21:11;16.13;;;2.37;;
26484;SDS011;18083;50.560;7.262;2023-03-14T18:23:38;3.33;;;1.93;;
26484;SDS011;18083;50.560;7.262;2023-03-14T18:26:06;11.10;;;2.30;;
26484;SDS011;18083;50.560;7.262;2023-03-14T18:28:34;8.90;;;2.60;;